createdAt,value
2023-05-12T00:01:37.654Z,99506.56
2023-05-12T00:04:05.333Z,99512.00
2023-05-12T00:06:32.537Z,99508.25
2023-05-12T00:08:59.639Z,99505.53
2023-05-12T00:11:28.541Z,99500.91
2023-05-12T00:13:55.632Z,99500.91
2023-05-12T00:16:22.720Z,99493.81
2023-05-12T00:18:49.646Z,99495.47
2023-05-12T00:21:18.169Z,99500.91
2023-05-12T00:23:45.592Z,99491.94
2023-05-12T00:26:12.527Z,99491.13
2023-05-12T00:28:42.300Z,99487.72
2023-05-12T00:31:10.970Z,99484.41
2023-05-12T00:33:38.284Z,99486.50
2023-05-12T00:36:06.708Z,99494.09
2023-05-12T00:38:33.680Z,99488.41
2023-05-12T00:41:01.382Z,99496.19
2023-05-12T00:43:29.551Z,99501.63
2023-05-12T00:45:58.293Z,99490.22
2023-05-12T00:48:25.914Z,99492.09
2023-05-12T00:50:54.322Z,99486.91
2023-05-12T00:53:21.400Z,99485.50
2023-05-12T00:55:48.433Z,99485.97
2023-05-12T00:58:16.915Z,99477.69
2023-05-12T01:00:43.999Z,99486.06
2023-05-12T01:03:12.959Z,99488.19
2023-05-12T01:05:48.988Z,99488.66
2023-05-12T01:08:17.505Z,99490.31
2023-05-12T01:10:45.172Z,99494.09
2023-05-12T01:13:14.303Z,99495.16
2023-05-12T01:15:47.794Z,99488.91
2023-05-12T01:18:21.372Z,99484.31
2023-05-12T01:20:51.020Z,99495.03
2023-05-12T01:23:23.711Z,99483.94
2023-05-12T01:25:52.734Z,99480.41
2023-05-12T01:28:21.719Z,99487.84
2023-05-12T01:30:50.815Z,99473.22
2023-05-12T01:33:18.240Z,99484.66
2023-05-12T01:35:45.082Z,99481.13
2023-05-12T01:38:11.945Z,99479.47
2023-05-12T01:40:41.232Z,99483.47
2023-05-12T01:43:08.461Z,99482.19
2023-05-12T01:45:36.837Z,99479.47
2023-05-12T01:48:04.231Z,99487.84
2023-05-12T01:50:31.234Z,99491.13
2023-05-12T01:52:58.928Z,99493.59
2023-05-12T01:55:26.009Z,99493.38
2023-05-12T01:57:56.219Z,99495.06
2023-05-12T02:00:24.302Z,99494.81
2023-05-12T02:02:55.475Z,99497.41
2023-05-12T02:05:22.719Z,99501.16
2023-05-12T02:07:50.479Z,99498.56
2023-05-12T02:10:18.350Z,99488.66
2023-05-12T02:12:45.940Z,99490.66
2023-05-12T02:15:12.959Z,99489.84
2023-05-12T02:17:44.191Z,99490.81
2023-05-12T02:20:13.262Z,99489.25
2023-05-12T02:22:40.164Z,99489.25
2023-05-12T02:25:08.320Z,99491.50
2023-05-12T02:27:36.038Z,99486.06
2023-05-12T02:30:04.096Z,99486.06
2023-05-12T02:32:32.550Z,99484.66
2023-05-12T02:34:59.582Z,99491.97
2023-05-12T02:37:28.941Z,99482.75
2023-05-12T02:39:56.010Z,99485.25
2023-05-12T02:42:24.389Z,99476.28
2023-05-12T02:44:51.499Z,99479.25
2023-05-12T02:47:18.475Z,99479.94
2023-05-12T02:49:46.347Z,99481.00
2023-05-12T02:52:13.407Z,99473.94
2023-05-12T02:54:41.692Z,99494.31
2023-05-12T02:57:08.688Z,99481.47
2023-05-12T02:59:35.708Z,99491.28
2023-05-12T03:02:02.650Z,99484.78
2023-05-12T03:04:31.593Z,99488.91
2023-05-12T03:07:04.530Z,99478.88
2023-05-12T03:09:38.129Z,99481.34
2023-05-12T03:12:09.402Z,99483.22
2023-05-12T03:14:36.447Z,99480.28
2023-05-12T03:17:04.058Z,99485.72
2023-05-12T03:19:30.988Z,99470.28
2023-05-12T03:21:58.000Z,99478.41
2023-05-12T03:24:25.083Z,99474.63
2023-05-12T03:26:51.947Z,99480.28
2023-05-12T03:29:20.642Z,99481.38
2023-05-12T03:31:47.842Z,99478.53
2023-05-12T03:34:14.943Z,99477.69
2023-05-12T03:36:41.755Z,99483.25
2023-05-12T03:39:08.675Z,99488.66
2023-05-12T03:41:36.806Z,99485.13
2023-05-12T03:44:04.732Z,99493.16
2023-05-12T03:46:33.989Z,99488.06
2023-05-12T03:49:01.127Z,99481.38
2023-05-12T03:51:28.176Z,99481.47
2023-05-12T03:53:55.214Z,99475.22
2023-05-12T03:56:22.184Z,99481.00
2023-05-12T03:58:49.170Z,99471.22
2023-05-12T04:01:17.933Z,99480.88
2023-05-12T04:03:46.790Z,99481.22
2023-05-12T04:06:14.313Z,99483.81
2023-05-12T04:08:42.832Z,99490.28
2023-05-12T04:11:10.006Z,99493.44
2023-05-12T04:13:38.059Z,99484.00
2023-05-12T04:16:05.875Z,99481.13
2023-05-12T04:18:33.034Z,99492.59
2023-05-12T04:21:01.510Z,99482.31
2023-05-12T04:23:28.602Z,99484.94
2023-05-12T04:25:55.512Z,99482.13
2023-05-12T04:28:22.925Z,99489.91
2023-05-12T04:30:50.277Z,99493.38
2023-05-12T04:33:17.785Z,99485.72
2023-05-12T04:35:45.065Z,99490.19
2023-05-12T04:38:14.955Z,99495.25
2023-05-12T04:40:42.097Z,99496.69
2023-05-12T04:43:09.178Z,99495.16
2023-05-12T04:45:40.556Z,99489.03
2023-05-12T04:48:07.779Z,99496.94
2023-05-12T04:50:34.726Z,99489.72
2023-05-12T04:53:01.671Z,99497.16
2023-05-12T04:55:31.518Z,99504.25
2023-05-12T04:57:58.551Z,99502.34
2023-05-12T05:00:26.320Z,99501.63
2023-05-12T05:02:53.965Z,99507.19
2023-05-12T05:05:23.447Z,99503.16
2023-05-12T05:07:51.590Z,99506.47
2023-05-12T05:10:19.033Z,99493.47
2023-05-12T05:12:47.641Z,99516.16
2023-05-12T05:15:14.849Z,99513.66
2023-05-12T05:17:41.990Z,99507.53
2023-05-12T05:20:12.395Z,99503.03
2023-05-12T05:22:43.855Z,99508.34
2023-05-12T05:25:11.581Z,99505.13
2023-05-12T05:27:38.887Z,99507.94
2023-05-12T05:30:10.623Z,99510.41
2023-05-12T05:32:38.858Z,99512.91
2023-05-12T05:35:07.669Z,99522.81
2023-05-12T05:37:38.242Z,99514.16
2023-05-12T05:40:07.704Z,99517.00
2023-05-12T05:42:36.825Z,99518.06
2023-05-12T05:45:04.780Z,99522.75
2023-05-12T05:47:33.971Z,99522.19
2023-05-12T05:50:00.939Z,99531.63
2023-05-12T05:52:28.089Z,99528.66
2023-05-12T05:54:55.593Z,99535.53
2023-05-12T05:57:25.618Z,99530.66
2023-05-12T05:59:53.663Z,99525.16
2023-05-12T06:02:20.688Z,99526.78
2023-05-12T06:04:49.264Z,99529.03
2023-05-12T06:07:16.255Z,99532.59
2023-05-12T06:09:43.470Z,99533.97
2023-05-12T06:12:17.034Z,99534.09
2023-05-12T06:14:44.341Z,99536.44
2023-05-12T06:17:11.552Z,99535.47
2023-05-12T06:19:38.834Z,99537.59
2023-05-12T06:22:07.289Z,99538.63
2023-05-12T06:24:34.360Z,99536.31
2023-05-12T06:27:01.540Z,99547.63
2023-05-12T06:29:28.337Z,99544.75
2023-05-12T06:31:55.859Z,99540.81
2023-05-12T06:34:24.771Z,99537.38
2023-05-12T06:36:54.817Z,99542.88
2023-05-12T06:39:26.638Z,99542.72
2023-05-12T06:41:54.606Z,99547.44
2023-05-12T06:44:22.370Z,99542.56
2023-05-12T06:46:52.890Z,99554.09
2023-05-12T06:49:21.466Z,99554.66
2023-05-12T06:51:48.506Z,99549.34
2023-05-12T06:54:15.485Z,99555.97
2023-05-12T06:56:43.731Z,99554.38
2023-05-12T06:59:12.887Z,99556.56
2023-05-12T07:01:40.347Z,99545.75
2023-05-12T07:04:07.430Z,99545.44
2023-05-12T07:06:34.461Z,99546.22
2023-05-12T07:09:01.839Z,99546.72
2023-05-12T07:11:29.082Z,99542.00
2023-05-12T07:13:57.304Z,99548.88
2023-05-12T07:16:24.343Z,99537.91
2023-05-12T07:18:51.589Z,99549.81
2023-05-12T07:22:33.738Z,99553.22
2023-05-12T07:25:00.823Z,99550.75
2023-05-12T07:27:27.979Z,99551.72
2023-05-12T07:29:56.769Z,99545.97
2023-05-12T07:32:24.825Z,99543.34
2023-05-12T07:34:51.693Z,99550.00
2023-05-12T07:37:18.636Z,99540.28
2023-05-12T07:39:45.730Z,99545.75
2023-05-12T07:42:12.912Z,99536.22
2023-05-12T07:45:20.398Z,99537.06
2023-05-12T07:47:47.542Z,99540.00
2023-05-12T07:50:14.436Z,99538.22
2023-05-12T07:52:51.095Z,99534.75
2023-05-12T07:55:20.956Z,99535.88
2023-05-12T07:57:49.987Z,99541.44
2023-05-12T08:00:18.993Z,99538.22
2023-05-12T08:02:46.062Z,99530.88
2023-05-12T08:05:13.672Z,99533.25
2023-05-12T08:07:41.150Z,99539.44
2023-05-12T08:10:10.193Z,99537.41
2023-05-12T08:12:37.876Z,99536.75
2023-05-12T08:15:05.781Z,99533.97
2023-05-12T08:17:37.735Z,99538.69
2023-05-12T08:20:05.764Z,99541.50
2023-05-12T08:22:34.519Z,99542.59
2023-05-12T08:25:01.845Z,99545.38
2023-05-12T08:27:30.906Z,99548.66
2023-05-12T08:29:58.133Z,99551.94
2023-05-12T08:32:25.541Z,99548.63
2023-05-12T08:34:54.381Z,99550.75
2023-05-12T08:37:22.789Z,99547.72
2023-05-12T08:39:49.829Z,99551.94
2023-05-12T08:42:34.863Z,99549.91
2023-05-12T08:45:02.632Z,99550.75
2023-05-12T08:47:33.686Z,99547.72
2023-05-12T08:50:04.181Z,99546.28
2023-05-12T08:52:35.586Z,99545.47
2023-05-12T08:55:05.128Z,99541.44
2023-05-12T08:57:34.486Z,99546.38
2023-05-12T09:00:03.393Z,99551.84
2023-05-12T09:02:51.419Z,99559.56
2023-05-12T09:05:23.041Z,99560.44
2023-05-12T09:07:53.668Z,99555.84
2023-05-12T09:13:02.993Z,99568.03
2023-05-12T09:15:38.838Z,99574.31
2023-05-12T09:18:06.334Z,99573.94
2023-05-12T09:20:34.915Z,99578.22
2023-05-12T09:23:14.988Z,99574.78
2023-05-12T09:25:42.397Z,99573.41
2023-05-12T09:28:09.601Z,99570.03
2023-05-12T09:30:37.187Z,99568.59
2023-05-12T09:33:09.091Z,99571.53
2023-05-12T09:35:42.733Z,99574.09
2023-05-12T09:38:14.000Z,99572.31
2023-05-12T09:40:41.241Z,99573.53
2023-05-12T09:43:08.828Z,99571.06
2023-05-12T09:45:37.277Z,99567.06
2023-05-12T09:48:13.021Z,99565.59
2023-05-12T09:50:47.609Z,99568.63
2023-05-12T09:53:15.139Z,99571.91
2023-05-12T09:55:44.387Z,99580.16
2023-05-12T09:58:11.985Z,99568.94
2023-05-12T10:01:05.986Z,99566.03
2023-05-12T10:03:30.783Z,99571.34
2023-05-12T10:06:05.022Z,99573.75
2023-05-12T10:08:41.923Z,99575.81
2023-05-12T10:11:10.640Z,99566.72
2023-05-12T10:13:39.154Z,99571.75
2023-05-12T10:16:07.894Z,99565.50
2023-05-12T10:18:35.405Z,99565.00
2023-05-12T10:21:07.634Z,99566.03
2023-05-12T10:23:39.261Z,99569.28
2023-05-12T10:26:09.482Z,99564.69
2023-05-12T10:28:36.383Z,99556.22
2023-05-12T10:31:07.812Z,99574.06
2023-05-12T10:33:36.033Z,99557.53
2023-05-12T10:36:03.349Z,99560.97
2023-05-12T10:38:37.526Z,99557.81
2023-05-12T10:41:06.421Z,99557.28
2023-05-12T10:43:42.169Z,99554.06
2023-05-12T10:46:17.124Z,99552.66
2023-05-12T10:48:54.157Z,99553.19
2023-05-12T10:51:25.657Z,99555.66
2023-05-12T10:53:58.100Z,99555.94
2023-05-12T10:56:29.369Z,99551.50
2023-05-12T10:59:15.195Z,99553.66
2023-05-12T11:01:57.597Z,99553.91
2023-05-12T11:04:41.077Z,99553.00
2023-05-12T11:07:09.973Z,99556.22
2023-05-12T11:09:53.103Z,99559.38
2023-05-12T11:12:26.812Z,99560.13
2023-05-12T11:14:55.109Z,99557.38
2023-05-12T11:17:23.891Z,99564.94
2023-05-12T11:19:51.277Z,99558.34
2023-05-12T11:22:22.013Z,99555.81
2023-05-12T11:24:52.120Z,99562.81
2023-05-12T11:27:21.090Z,99570.91
2023-05-12T11:29:57.901Z,99567.91
2023-05-12T11:32:25.182Z,99572.63
2023-05-12T11:34:52.172Z,99567.16
2023-05-12T11:37:19.138Z,99568.16
2023-05-12T11:39:45.988Z,99572.53
2023-05-12T11:42:15.713Z,99576.03
2023-05-12T11:44:48.460Z,99569.13
2023-05-12T11:47:19.396Z,99576.66
2023-05-12T11:49:48.772Z,99572.34
2023-05-12T11:52:17.101Z,99573.63
2023-05-12T11:54:50.301Z,99578.31
2023-05-12T11:57:27.801Z,99579.31
2023-05-12T12:00:00.902Z,99577.00
2023-05-12T12:02:28.716Z,99578.44
2023-05-12T12:04:56.278Z,99582.22
2023-05-12T12:07:34.231Z,99588.16
2023-05-12T12:10:12.643Z,99589.72
2023-05-12T12:12:42.502Z,99591.56
2023-05-12T12:15:11.389Z,99588.84
2023-05-12T12:17:39.870Z,99592.47
2023-05-12T12:20:08.942Z,99594.91
2023-05-12T12:22:36.238Z,99595.72
2023-05-12T12:25:04.074Z,99594.88
2023-05-12T12:27:32.991Z,99603.88
2023-05-12T12:30:01.349Z,99615.59
2023-05-12T12:32:29.335Z,99621.47
2023-05-12T12:34:56.337Z,99615.47
2023-05-12T12:37:23.246Z,99619.94
2023-05-12T12:39:50.434Z,99629.47
2023-05-12T12:42:17.373Z,99630.75
2023-05-12T12:44:45.065Z,99623.75
2023-05-12T12:47:15.391Z,99625.19
2023-05-12T12:49:42.664Z,99629.72
2023-05-12T12:52:10.231Z,99631.41
2023-05-12T12:54:37.699Z,99631.94
2023-05-12T12:57:07.262Z,99630.25
2023-05-12T12:59:34.441Z,99631.59
2023-05-12T13:02:02.165Z,99635.50
2023-05-12T13:04:30.559Z,99627.59
2023-05-12T13:06:57.856Z,99629.47
2023-05-12T13:09:25.056Z,99633.19
2023-05-12T13:11:53.503Z,99627.84
2023-05-12T13:14:21.621Z,99629.59
2023-05-12T13:16:48.735Z,99623.59
2023-05-12T13:19:17.326Z,99622.38
2023-05-12T13:21:45.684Z,99624.50
2023-05-12T13:24:13.045Z,99625.38
2023-05-12T13:26:40.329Z,99624.19
2023-05-12T13:29:07.203Z,99622.03
2023-05-12T13:31:34.811Z,99620.72
2023-05-12T13:34:02.111Z,99622.09
2023-05-12T13:36:30.024Z,99611.81
2023-05-12T13:38:58.262Z,99622.59
2023-05-12T13:41:25.365Z,99626.19
2023-05-12T13:43:52.276Z,99614.97
2023-05-12T13:46:22.218Z,99614.66
2023-05-12T13:48:49.220Z,99625.81
2023-05-12T13:51:16.292Z,99624.03
2023-05-12T13:53:43.185Z,99616.44
2023-05-12T13:56:18.871Z,99618.09
2023-05-12T13:58:46.627Z,99613.44
2023-05-12T14:01:13.825Z,99612.50
2023-05-12T14:03:40.711Z,99613.47
2023-05-12T14:06:08.213Z,99601.25
2023-05-12T14:08:35.100Z,99597.41
2023-05-12T14:11:02.049Z,99603.25
2023-05-12T14:13:31.959Z,99610.81
2023-05-12T14:15:59.367Z,99610.28
2023-05-12T14:18:26.670Z,99606.00
2023-05-12T14:20:53.716Z,99615.63
2023-05-12T14:23:20.791Z,99612.66
2023-05-12T14:25:48.950Z,99624.69
2023-05-12T14:28:16.755Z,99612.19
2023-05-12T14:30:45.905Z,99616.94
2023-05-12T14:33:13.687Z,99621.25
2023-05-12T14:35:40.608Z,99610.72
2023-05-12T14:38:44.622Z,99610.59
2023-05-12T14:41:12.143Z,99613.25
2023-05-12T14:43:40.182Z,99605.78
2023-05-12T14:46:08.933Z,99609.06
2023-05-12T14:48:35.964Z,99613.06
2023-05-12T14:51:03.442Z,99624.84
2023-05-12T14:53:30.414Z,99618.13
2023-05-12T14:55:57.405Z,99627.56
2023-05-12T14:58:24.612Z,99626.44
2023-05-12T15:01:17.945Z,99632.75
2023-05-12T15:03:44.837Z,99631.03
2023-05-12T15:06:58.993Z,99639.31
2023-05-12T15:09:26.454Z,99641.94
2023-05-12T15:11:53.698Z,99639.47
2023-05-12T15:14:20.656Z,99641.94
2023-05-12T15:16:48.939Z,99651.59
2023-05-12T15:19:17.974Z,99644.91
2023-05-12T15:22:12.535Z,99649.50
2023-05-12T15:24:39.616Z,99651.19
2023-05-12T15:27:06.847Z,99644.91
2023-05-12T15:29:38.026Z,99645.25
2023-05-12T15:32:08.127Z,99635.16
2023-05-12T15:34:35.281Z,99634.56
2023-05-12T15:37:02.229Z,99642.44
2023-05-12T15:39:31.060Z,99645.41
2023-05-12T15:41:58.353Z,99642.91
2023-05-12T15:44:25.561Z,99643.41
2023-05-12T15:51:04.269Z,99640.72
2023-05-12T15:53:32.416Z,99635.59
2023-05-12T15:56:17.502Z,99639.09
2023-05-12T15:58:44.946Z,99635.78
2023-05-12T16:01:11.781Z,99636.00
2023-05-12T16:03:38.834Z,99637.28
2023-05-12T16:06:24.575Z,99641.56
2023-05-12T16:08:51.657Z,99634.16
2023-05-12T16:11:18.507Z,99643.56
2023-05-12T16:13:47.824Z,99642.31
2023-05-12T16:16:14.993Z,99646.13
2023-05-12T16:18:42.195Z,99638.22
2023-05-12T16:21:09.414Z,99650.25
2023-05-12T16:23:37.835Z,99640.94
2023-05-12T16:26:05.090Z,99641.34
2023-05-12T16:28:32.470Z,99648.28
2023-05-12T16:30:59.357Z,99656.19
2023-05-12T16:33:26.557Z,99644.31
2023-05-12T16:35:53.594Z,99636.97
2023-05-12T16:38:20.530Z,99635.09
2023-05-12T16:40:48.890Z,99641.97
2023-05-12T16:43:16.756Z,99647.97
2023-05-12T16:45:43.899Z,99649.28
2023-05-12T16:48:10.921Z,99638.22
2023-05-12T16:50:37.969Z,99641.88
2023-05-12T16:53:06.217Z,99639.06
2023-05-12T16:55:33.152Z,99641.75
2023-05-12T16:58:01.541Z,99646.22
2023-05-12T17:00:28.703Z,99650.22
2023-05-12T17:02:55.703Z,99660.03
2023-05-12T17:05:23.825Z,99647.19
2023-05-12T17:07:51.076Z,99662.13
2023-05-12T17:10:18.649Z,99664.75
2023-05-12T17:12:45.660Z,99655.53
2023-05-12T17:15:25.400Z,99661.88
2023-05-12T17:17:57.402Z,99665.84
2023-05-12T17:20:24.453Z,99679.69
2023-05-12T17:24:10.708Z,99661.44
2023-05-12T17:26:37.938Z,99667.66
2023-05-12T17:29:04.934Z,99671.66
2023-05-12T17:31:33.629Z,99673.88
2023-05-12T17:34:01.706Z,99683.38
2023-05-12T17:36:29.607Z,99673.41
2023-05-12T17:38:56.667Z,99689.41
2023-05-12T17:41:23.528Z,99681.00
2023-05-12T17:43:52.801Z,99688.81
2023-05-12T17:46:20.415Z,99687.16
2023-05-12T17:48:48.589Z,99691.97
2023-05-12T17:51:15.583Z,99684.78
2023-05-12T17:53:42.663Z,99689.00
2023-05-12T17:56:09.599Z,99690.59
2023-05-12T17:58:37.703Z,99692.13
2023-05-12T18:01:04.720Z,99692.13
2023-05-12T18:03:34.650Z,99687.81
2023-05-12T18:06:30.819Z,99691.03
2023-05-12T18:08:58.420Z,99692.59
2023-05-12T18:11:25.983Z,99691.41
2023-05-12T18:13:53.670Z,99695.06
2023-05-12T18:16:28.450Z,99694.59
2023-05-12T18:18:57.163Z,99697.31
2023-05-12T18:21:24.864Z,99694.25
2023-05-12T18:23:53.925Z,99699.69
2023-05-12T18:26:21.262Z,99695.41
2023-05-12T18:28:48.775Z,99700.16
2023-05-12T18:31:16.747Z,99704.91
2023-05-12T18:33:46.638Z,99701.78
2023-05-12T18:36:13.673Z,99708.53
2023-05-12T18:38:46.017Z,99703.56
2023-05-12T18:41:14.790Z,99693.28
2023-05-12T18:43:42.800Z,99704.16
2023-05-12T18:46:09.860Z,99706.06
2023-05-12T18:48:36.820Z,99707.72
2023-05-12T18:51:04.606Z,99696.59
2023-05-12T18:53:31.721Z,99698.63
2023-05-12T18:56:00.231Z,99696.03
2023-05-12T18:58:29.674Z,99708.06
2023-05-12T19:00:56.977Z,99709.88
2023-05-12T19:03:28.717Z,99711.38
2023-05-12T19:05:55.596Z,99709.03
2023-05-12T19:08:22.646Z,99723.91
2023-05-12T19:10:49.723Z,99727.56
2023-05-12T19:13:16.760Z,99738.91
2023-05-12T19:15:45.203Z,99736.66
2023-05-12T19:18:15.862Z,99742.56
2023-05-12T19:20:43.097Z,99738.09
2023-05-12T19:23:10.047Z,99741.88
2023-05-12T19:25:37.350Z,99745.50
2023-05-12T19:28:05.140Z,99743.66
2023-05-12T19:30:32.394Z,99746.47
2023-05-12T19:33:00.786Z,99751.69
2023-05-12T19:35:27.851Z,99749.44
2023-05-12T19:37:56.004Z,99752.84
2023-05-12T19:40:23.278Z,99751.91
2023-05-12T19:42:50.433Z,99751.78
2023-05-12T19:45:18.612Z,99762.34
2023-05-12T19:47:46.254Z,99756.75
2023-05-12T19:50:14.612Z,99755.94
2023-05-12T19:52:41.597Z,99765.75
2023-05-12T19:55:09.484Z,99770.22
2023-05-12T19:57:36.336Z,99782.16
2023-05-12T20:00:04.754Z,99789.63
2023-05-12T20:02:40.333Z,99793.66
2023-05-12T20:05:08.357Z,99787.03
2023-05-12T20:07:36.578Z,99792.09
2023-05-12T20:10:04.201Z,99797.03
2023-05-12T20:12:31.649Z,99794.72
2023-05-12T20:14:58.715Z,99792.34
2023-05-12T20:17:25.957Z,99781.50
2023-05-12T20:19:52.854Z,99796.25
2023-05-12T20:22:19.787Z,99800.38
2023-05-12T20:24:48.834Z,99807.00
2023-05-12T20:27:15.929Z,99813.03
2023-05-12T20:29:42.783Z,99817.16
2023-05-12T20:32:09.667Z,99812.31
2023-05-12T20:34:36.909Z,99814.69
2023-05-12T20:37:04.006Z,99814.09
2023-05-12T20:39:31.847Z,99810.22
2023-05-12T20:42:00.066Z,99813.16
2023-05-12T20:44:27.004Z,99807.00
2023-05-12T20:46:53.950Z,99817.75
2023-05-12T20:49:21.818Z,99814.22
2023-05-12T20:51:48.753Z,99814.09
2023-05-12T20:54:15.842Z,99818.00
2023-05-12T20:56:42.880Z,99822.13
2023-05-12T20:59:11.105Z,99822.25
2023-05-12T21:01:39.180Z,99827.56
2023-05-12T21:04:06.652Z,99825.44
2023-05-12T21:06:35.593Z,99818.94
2023-05-12T21:09:03.365Z,99816.59
2023-05-12T21:11:30.930Z,99813.59
2023-05-12T21:13:59.298Z,99809.84
2023-05-12T21:16:30.595Z,99821.41
2023-05-12T21:18:57.652Z,99818.72
2023-05-12T21:21:24.981Z,99818.94
2023-05-12T21:23:51.920Z,99823.91
2023-05-12T21:26:18.867Z,99817.41
2023-05-12T21:28:45.997Z,99824.00
2023-05-12T21:31:12.932Z,99821.06
2023-05-12T21:33:43.045Z,99820.81
2023-05-12T21:36:10.005Z,99819.38
2023-05-12T21:38:36.939Z,99817.34
2023-05-12T21:41:04.446Z,99819.59
2023-05-12T21:43:31.431Z,99824.13
2023-05-12T21:46:02.652Z,99821.75
2023-05-12T21:48:29.964Z,99821.03
2023-05-12T21:50:59.980Z,99806.59
2023-05-12T21:53:27.869Z,99808.47
2023-05-12T21:55:55.001Z,99808.69
2023-05-12T21:58:23.409Z,99815.03
2023-05-12T22:00:50.835Z,99814.53
2023-05-12T22:03:18.077Z,99815.72
2023-05-12T22:05:45.112Z,99826.72
2023-05-12T22:08:13.610Z,99821.91
2023-05-12T22:10:40.620Z,99822.03
2023-05-12T22:13:07.693Z,99821.69
2023-05-12T22:15:34.887Z,99834.69
2023-05-12T22:20:42.350Z,99830.19
2023-05-12T22:23:09.220Z,99829.25
2023-05-12T22:25:37.768Z,99834.31
2023-05-12T22:28:07.095Z,99833.97
2023-05-12T22:30:34.190Z,99839.72
2023-05-12T22:33:01.115Z,99832.47
2023-05-12T22:35:28.309Z,99834.09
2023-05-12T22:37:55.404Z,99826.66
2023-05-12T22:40:22.968Z,99828.78
2023-05-12T22:42:51.791Z,99832.53
2023-05-12T22:45:19.180Z,99842.16
2023-05-12T22:47:46.382Z,99841.50
2023-05-12T22:50:13.464Z,99835.63
2023-05-12T22:52:40.364Z,99827.84
2023-05-12T22:55:08.955Z,99834.09
2023-05-12T22:57:36.386Z,99836.22
2023-05-12T23:00:06.460Z,99836.69
2023-05-12T23:02:33.491Z,99828.75
2023-05-12T23:05:00.534Z,99843.97
2023-05-12T23:07:27.642Z,99837.03
2023-05-12T23:09:54.730Z,99831.38
2023-05-12T23:12:21.854Z,99829.50
2023-05-12T23:14:48.882Z,99820.06
2023-05-12T23:17:17.501Z,99817.34
2023-05-12T23:19:44.487Z,99825.50
2023-05-12T23:22:11.616Z,99826.56
2023-05-12T23:24:38.591Z,99820.06
2023-05-12T23:27:06.380Z,99814.28
2023-05-12T23:29:33.331Z,99816.63
2023-05-12T23:32:00.477Z,99821.66
2023-05-12T23:34:29.132Z,99823.41
2023-05-12T23:36:56.594Z,99817.25
2023-05-12T23:39:23.533Z,99825.84
2023-05-12T23:41:50.468Z,99826.75
2023-05-12T23:44:17.514Z,99815.75
2023-05-12T23:46:44.662Z,99819.53
2023-05-12T23:49:11.558Z,99813.72
2023-05-12T23:51:40.727Z,99815.00
2023-05-12T23:54:07.651Z,99817.09
2023-05-12T23:56:34.977Z,99807.00
2023-05-12T23:59:01.882Z,99805.31
